sensor_id;sensor_type;location;lat;lon;timestamp;temperature;humidity
12156;DHT22;6141;49.092;8.516;2023-03-23T00:02:22;15.70;29.20
12156;DHT22;6141;49.092;8.516;2023-03-23T00:04:49;15.80;29.20
12156;DHT22;6141;49.092;8.516;2023-03-23T00:07:16;15.90;28.90
12156;DHT22;6141;49.092;8.516;2023-03-23T00:09:47;15.90;29.20
12156;DHT22;6141;49.092;8.516;2023-03-23T00:12:19;15.90;29.20
12156;DHT22;6141;49.092;8.516;2023-03-23T00:14:47;15.90;28.90
12156;DHT22;6141;49.092;8.516;2023-03-23T00:17:14;15.80;29.30
12156;DHT22;6141;49.092;8.516;2023-03-23T00:19:41;15.60;29.60
12156;DHT22;6141;49.092;8.516;2023-03-23T00:22:13;15.50;29.50
12156;DHT22;6141;49.092;8.516;2023-03-23T00:24:40;15.50;29.90
12156;DHT22;6141;49.092;8.516;2023-03-23T00:27:07;15.50;29.90
12156;DHT22;6141;49.092;8.516;2023-03-23T00:29:39;15.50;29.90
12156;DHT22;6141;49.092;8.516;2023-03-23T00:32:08;15.40;30.00
12156;DHT22;6141;49.092;8.516;2023-03-23T00:34:38;15.40;30.00
12156;DHT22;6141;49.092;8.516;2023-03-23T00:37:06;15.50;29.90
12156;DHT22;6141;49.092;8.516;2023-03-23T00:39:34;15.60;29.80
12156;DHT22;6141;49.092;8.516;2023-03-23T00:42:03;15.50;29.70
12156;DHT22;6141;49.092;8.516;2023-03-23T00:44:31;15.50;29.70
12156;DHT22;6141;49.092;8.516;2023-03-23T00:47:00;15.50;29.60
12156;DHT22;6141;49.092;8.516;2023-03-23T00:49:31;15.50;29.60
12156;DHT22;6141;49.092;8.516;2023-03-23T00:52:00;15.70;29.40
12156;DHT22;6141;49.092;8.516;2023-03-23T00:54:27;15.80;28.60
12156;DHT22;6141;49.092;8.516;2023-03-23T00:56:55;15.80;28.60
12156;DHT22;6141;49.092;8.516;2023-03-23T00:59:22;15.80;28.40
12156;DHT22;6141;49.092;8.516;2023-03-23T01:01:50;15.70;28.80
12156;DHT22;6141;49.092;8.516;2023-03-23T01:04:18;15.60;29.20
12156;DHT22;6141;49.092;8.516;2023-03-23T01:06:48;15.70;28.80
12156;DHT22;6141;49.092;8.516;2023-03-23T01:09:16;15.70;29.00
12156;DHT22;6141;49.092;8.516;2023-03-23T01:11:47;15.60;29.20
12156;DHT22;6141;49.092;8.516;2023-03-23T01:14:16;15.70;29.50
12156;DHT22;6141;49.092;8.516;2023-03-23T01:16:44;15.70;29.00
12156;DHT22;6141;49.092;8.516;2023-03-23T01:19:11;15.80;28.80
12156;DHT22;6141;49.092;8.516;2023-03-23T01:21:38;15.90;28.60
12156;DHT22;6141;49.092;8.516;2023-03-23T01:24:06;16.00;28.40
12156;DHT22;6141;49.092;8.516;2023-03-23T01:26:34;16.10;28.00
12156;DHT22;6141;49.092;8.516;2023-03-23T01:29:01;16.10;28.20
12156;DHT22;6141;49.092;8.516;2023-03-23T01:31:28;16.10;27.80
12156;DHT22;6141;49.092;8.516;2023-03-23T01:33:57;16.20;27.80
12156;DHT22;6141;49.092;8.516;2023-03-23T01:36:25;16.20;27.90
12156;DHT22;6141;49.092;8.516;2023-03-23T01:38:58;16.20;27.90
12156;DHT22;6141;49.092;8.516;2023-03-23T01:41:27;16.10;27.50
12156;DHT22;6141;49.092;8.516;2023-03-23T01:43:59;16.10;28.00
12156;DHT22;6141;49.092;8.516;2023-03-23T01:46:32;16.10;27.60
12156;DHT22;6141;49.092;8.516;2023-03-23T01:49:01;16.10;28.10
12156;DHT22;6141;49.092;8.516;2023-03-23T01:51:32;16.10;27.80
12156;DHT22;6141;49.092;8.516;2023-03-23T01:54:00;16.20;27.90
12156;DHT22;6141;49.092;8.516;2023-03-23T01:56:31;16.20;27.80
12156;DHT22;6141;49.092;8.516;2023-03-23T01:58:59;16.30;27.40
12156;DHT22;6141;49.092;8.516;2023-03-23T02:01:27;16.40;27.20
12156;DHT22;6141;49.092;8.516;2023-03-23T02:03:55;16.40;27.20
12156;DHT22;6141;49.092;8.516;2023-03-23T02:06:24;16.40;27.40
12156;DHT22;6141;49.092;8.516;2023-03-23T02:09:03;16.40;27.40
12156;DHT22;6141;49.092;8.516;2023-03-23T02:11:33;16.50;27.10
12156;DHT22;6141;49.092;8.516;2023-03-23T02:14:01;16.40;26.60
12156;DHT22;6141;49.092;8.516;2023-03-23T02:16:31;16.50;26.90
12156;DHT22;6141;49.092;8.516;2023-03-23T02:19:04;16.50;26.70
12156;DHT22;6141;49.092;8.516;2023-03-23T02:21:39;16.50;26.60
12156;DHT22;6141;49.092;8.516;2023-03-23T02:24:19;16.50;26.60
12156;DHT22;6141;49.092;8.516;2023-03-23T02:26:55;16.50;26.60
12156;DHT22;6141;49.092;8.516;2023-03-23T02:29:27;16.60;26.70
12156;DHT22;6141;49.092;8.516;2023-03-23T02:32:03;16.60;26.70
12156;DHT22;6141;49.092;8.516;2023-03-23T02:34:34;16.70;26.70
12156;DHT22;6141;49.092;8.516;2023-03-23T02:37:07;16.80;26.30
12156;DHT22;6141;49.092;8.516;2023-03-23T02:39:37;16.80;26.50
12156;DHT22;6141;49.092;8.516;2023-03-23T02:42:06;16.70;26.70
12156;DHT22;6141;49.092;8.516;2023-03-23T02:44:34;16.70;26.30
12156;DHT22;6141;49.092;8.516;2023-03-23T02:47:03;16.80;26.00
12156;DHT22;6141;49.092;8.516;2023-03-23T02:49:31;16.90;25.80
12156;DHT22;6141;49.092;8.516;2023-03-23T02:52:01;17.00;25.40
12156;DHT22;6141;49.092;8.516;2023-03-23T02:54:29;17.00;25.50
12156;DHT22;6141;49.092;8.516;2023-03-23T02:56:56;17.10;25.30
12156;DHT22;6141;49.092;8.516;2023-03-23T02:59:28;17.10;25.30
12156;DHT22;6141;49.092;8.516;2023-03-23T03:01:57;17.00;25.30
12156;DHT22;6141;49.092;8.516;2023-03-23T03:04:25;17.00;25.60
12156;DHT22;6141;49.092;8.516;2023-03-23T03:07:09;17.20;24.80
12156;DHT22;6141;49.092;8.516;2023-03-23T03:09:46;17.30;24.90
12156;DHT22;6141;49.092;8.516;2023-03-23T03:12:15;17.40;24.60
12156;DHT22;6141;49.092;8.516;2023-03-23T03:14:47;17.50;24.20
12156;DHT22;6141;49.092;8.516;2023-03-23T03:17:17;17.50;24.40
12156;DHT22;6141;49.092;8.516;2023-03-23T03:19:48;17.50;24.30
12156;DHT22;6141;49.092;8.516;2023-03-23T03:22:19;17.50;24.30
12156;DHT22;6141;49.092;8.516;2023-03-23T03:24:47;17.40;24.60
12156;DHT22;6141;49.092;8.516;2023-03-23T03:27:15;17.40;24.40
12156;DHT22;6141;49.092;8.516;2023-03-23T03:29:48;17.40;24.90
12156;DHT22;6141;49.092;8.516;2023-03-23T03:32:18;17.40;24.80
12156;DHT22;6141;49.092;8.516;2023-03-23T03:34:48;17.40;25.20
12156;DHT22;6141;49.092;8.516;2023-03-23T03:37:16;17.20;25.70
12156;DHT22;6141;49.092;8.516;2023-03-23T03:39:48;17.20;26.10
12156;DHT22;6141;49.092;8.516;2023-03-23T03:42:17;17.20;26.10
12156;DHT22;6141;49.092;8.516;2023-03-23T03:44:44;17.30;26.20
12156;DHT22;6141;49.092;8.516;2023-03-23T03:47:11;17.20;26.30
12156;DHT22;6141;49.092;8.516;2023-03-23T03:49:38;17.30;26.10
12156;DHT22;6141;49.092;8.516;2023-03-23T03:52:06;17.20;26.10
12156;DHT22;6141;49.092;8.516;2023-03-23T03:54:38;17.20;26.50
12156;DHT22;6141;49.092;8.516;2023-03-23T03:57:07;17.00;26.30
12156;DHT22;6141;49.092;8.516;2023-03-23T03:59:53;17.20;26.70
12156;DHT22;6141;49.092;8.516;2023-03-23T04:02:20;17.00;27.00
12156;DHT22;6141;49.092;8.516;2023-03-23T04:04:49;17.10;27.10
12156;DHT22;6141;49.092;8.516;2023-03-23T04:07:18;17.20;26.80
12156;DHT22;6141;49.092;8.516;2023-03-23T04:09:45;17.40;26.90
12156;DHT22;6141;49.092;8.516;2023-03-23T04:12:17;17.40;26.40
12156;DHT22;6141;49.092;8.516;2023-03-23T04:14:56;17.40;26.50
12156;DHT22;6141;49.092;8.516;2023-03-23T04:17:33;17.40;26.40
12156;DHT22;6141;49.092;8.516;2023-03-23T04:20:01;17.40;26.30
12156;DHT22;6141;49.092;8.516;2023-03-23T04:22:35;17.50;26.20
12156;DHT22;6141;49.092;8.516;2023-03-23T04:25:02;17.60;26.10
12156;DHT22;6141;49.092;8.516;2023-03-23T04:27:35;17.70;25.80
12156;DHT22;6141;49.092;8.516;2023-03-23T04:30:06;17.80;25.60
12156;DHT22;6141;49.092;8.516;2023-03-23T04:32:49;17.70;25.70
12156;DHT22;6141;49.092;8.516;2023-03-23T04:35:21;17.60;25.90
12156;DHT22;6141;49.092;8.516;2023-03-23T04:37:59;17.60;26.00
12156;DHT22;6141;49.092;8.516;2023-03-23T04:40:26;17.60;26.10
12156;DHT22;6141;49.092;8.516;2023-03-23T04:43:07;17.50;26.20
12156;DHT22;6141;49.092;8.516;2023-03-23T04:45:54;17.70;26.10
12156;DHT22;6141;49.092;8.516;2023-03-23T04:48:24;17.70;26.20
12156;DHT22;6141;49.092;8.516;2023-03-23T04:51:12;17.70;25.90
12156;DHT22;6141;49.092;8.516;2023-03-23T04:53:40;17.80;26.00
12156;DHT22;6141;49.092;8.516;2023-03-23T04:56:07;17.70;26.10
12156;DHT22;6141;49.092;8.516;2023-03-23T04:58:42;17.60;26.30
12156;DHT22;6141;49.092;8.516;2023-03-23T05:01:36;17.50;27.10
12156;DHT22;6141;49.092;8.516;2023-03-23T05:04:14;17.30;27.20
12156;DHT22;6141;49.092;8.516;2023-03-23T05:06:45;17.10;27.50
12156;DHT22;6141;49.092;8.516;2023-03-23T05:09:20;17.10;28.00
12156;DHT22;6141;49.092;8.516;2023-03-23T05:11:48;17.00;28.40
12156;DHT22;6141;49.092;8.516;2023-03-23T05:14:16;17.00;28.90
12156;DHT22;6141;49.092;8.516;2023-03-23T05:16:51;16.70;30.20
12156;DHT22;6141;49.092;8.516;2023-03-23T05:19:20;16.60;30.80
12156;DHT22;6141;49.092;8.516;2023-03-23T05:21:48;16.50;32.10
12156;DHT22;6141;49.092;8.516;2023-03-23T05:24:15;16.20;31.80
12156;DHT22;6141;49.092;8.516;2023-03-23T05:26:44;16.00;33.10
12156;DHT22;6141;49.092;8.516;2023-03-23T05:29:19;15.90;34.40
12156;DHT22;6141;49.092;8.516;2023-03-23T05:31:54;15.90;35.30
12156;DHT22;6141;49.092;8.516;2023-03-23T05:34:22;15.90;35.80
12156;DHT22;6141;49.092;8.516;2023-03-23T05:36:56;16.00;34.40
12156;DHT22;6141;49.092;8.516;2023-03-23T05:39:43;15.90;35.30
12156;DHT22;6141;49.092;8.516;2023-03-23T05:42:16;15.90;34.00
12156;DHT22;6141;49.092;8.516;2023-03-23T05:45:03;15.80;34.80
12156;DHT22;6141;49.092;8.516;2023-03-23T05:47:30;15.80;34.50
12156;DHT22;6141;49.092;8.516;2023-03-23T05:50:04;15.80;35.00
12156;DHT22;6141;49.092;8.516;2023-03-23T05:52:33;15.90;34.20
12156;DHT22;6141;49.092;8.516;2023-03-23T05:55:03;15.90;33.40
12156;DHT22;6141;49.092;8.516;2023-03-23T05:57:32;15.90;33.90
12156;DHT22;6141;49.092;8.516;2023-03-23T06:00:07;16.10;33.70
12156;DHT22;6141;49.092;8.516;2023-03-23T06:02:47;16.30;33.10
12156;DHT22;6141;49.092;8.516;2023-03-23T06:05:22;16.50;32.10
12156;DHT22;6141;49.092;8.516;2023-03-23T06:07:53;16.60;32.20
12156;DHT22;6141;49.092;8.516;2023-03-23T06:10:20;16.60;32.20
12156;DHT22;6141;49.092;8.516;2023-03-23T06:12:55;16.50;33.70
12156;DHT22;6141;49.092;8.516;2023-03-23T06:15:50;16.30;33.80
12156;DHT22;6141;49.092;8.516;2023-03-23T06:18:37;16.10;34.40
12156;DHT22;6141;49.092;8.516;2023-03-23T06:21:14;16.10;33.50
12156;DHT22;6141;49.092;8.516;2023-03-23T06:23:52;16.00;34.70
12156;DHT22;6141;49.092;8.516;2023-03-23T06:26:20;16.10;34.00
12156;DHT22;6141;49.092;8.516;2023-03-23T06:28:54;16.20;34.40
12156;DHT22;6141;49.092;8.516;2023-03-23T06:31:23;16.20;34.60
12156;DHT22;6141;49.092;8.516;2023-03-23T06:33:51;16.20;34.40
12156;DHT22;6141;49.092;8.516;2023-03-23T06:36:24;16.10;34.80
12156;DHT22;6141;49.092;8.516;2023-03-23T06:39:19;16.10;34.40
12156;DHT22;6141;49.092;8.516;2023-03-23T06:42:08;16.20;34.60
12156;DHT22;6141;49.092;8.516;2023-03-23T06:44:40;16.20;34.70
12156;DHT22;6141;49.092;8.516;2023-03-23T06:47:12;16.10;35.20
12156;DHT22;6141;49.092;8.516;2023-03-23T06:49:45;15.90;36.30
12156;DHT22;6141;49.092;8.516;2023-03-23T06:52:23;15.70;37.20
12156;DHT22;6141;49.092;8.516;2023-03-23T06:54:52;15.70;37.40
12156;DHT22;6141;49.092;8.516;2023-03-23T06:57:20;15.70;37.20
12156;DHT22;6141;49.092;8.516;2023-03-23T06:59:50;15.50;37.60
12156;DHT22;6141;49.092;8.516;2023-03-23T07:02:18;15.50;37.60
12156;DHT22;6141;49.092;8.516;2023-03-23T07:04:49;15.50;38.50
12156;DHT22;6141;49.092;8.516;2023-03-23T07:07:20;15.30;38.90
12156;DHT22;6141;49.092;8.516;2023-03-23T07:09:52;15.30;38.90
12156;DHT22;6141;49.092;8.516;2023-03-23T07:12:23;15.40;39.00
12156;DHT22;6141;49.092;8.516;2023-03-23T07:14:51;15.40;38.20
12156;DHT22;6141;49.092;8.516;2023-03-23T07:17:20;15.40;38.50
12156;DHT22;6141;49.092;8.516;2023-03-23T07:20:09;15.50;39.50
12156;DHT22;6141;49.092;8.516;2023-03-23T07:22:37;15.40;40.20
12156;DHT22;6141;49.092;8.516;2023-03-23T07:25:13;15.30;40.20
12156;DHT22;6141;49.092;8.516;2023-03-23T07:27:52;15.30;41.40
12156;DHT22;6141;49.092;8.516;2023-03-23T07:30:20;15.40;40.60
12156;DHT22;6141;49.092;8.516;2023-03-23T07:32:49;15.50;40.60
12156;DHT22;6141;49.092;8.516;2023-03-23T07:35:21;15.50;39.00
12156;DHT22;6141;49.092;8.516;2023-03-23T07:38:01;15.60;40.40
12156;DHT22;6141;49.092;8.516;2023-03-23T07:40:32;15.40;41.90
12156;DHT22;6141;49.092;8.516;2023-03-23T07:43:05;15.30;42.80
12156;DHT22;6141;49.092;8.516;2023-03-23T07:45:59;15.20;43.30
12156;DHT22;6141;49.092;8.516;2023-03-23T07:48:46;15.20;43.70
12156;DHT22;6141;49.092;8.516;2023-03-23T07:51:14;15.10;43.80
12156;DHT22;6141;49.092;8.516;2023-03-23T07:53:43;15.10;44.20
12156;DHT22;6141;49.092;8.516;2023-03-23T07:56:41;15.00;44.60
12156;DHT22;6141;49.092;8.516;2023-03-23T07:59:30;15.00;44.50
12156;DHT22;6141;49.092;8.516;2023-03-23T08:01:59;15.00;43.50
12156;DHT22;6141;49.092;8.516;2023-03-23T08:04:34;15.00;44.30
12156;DHT22;6141;49.092;8.516;2023-03-23T08:07:08;14.90;44.40
12156;DHT22;6141;49.092;8.516;2023-03-23T08:09:50;14.90;43.40
12156;DHT22;6141;49.092;8.516;2023-03-23T08:12:39;14.90;44.30
12156;DHT22;6141;49.092;8.516;2023-03-23T08:15:27;15.00;43.40
12156;DHT22;6141;49.092;8.516;2023-03-23T08:18:11;15.00;43.90
12156;DHT22;6141;49.092;8.516;2023-03-23T08:21:02;15.10;44.40
12156;DHT22;6141;49.092;8.516;2023-03-23T08:23:59;15.20;43.70
12156;DHT22;6141;49.092;8.516;2023-03-23T08:26:47;15.40;43.10
12156;DHT22;6141;49.092;8.516;2023-03-23T08:29:25;15.50;43.00
12156;DHT22;6141;49.092;8.516;2023-03-23T08:32:10;15.40;43.20
12156;DHT22;6141;49.092;8.516;2023-03-23T08:35:06;15.40;43.90
12156;DHT22;6141;49.092;8.516;2023-03-23T08:38:01;15.50;44.00
12156;DHT22;6141;49.092;8.516;2023-03-23T08:40:47;15.50;43.70
12156;DHT22;6141;49.092;8.516;2023-03-23T08:43:32;15.60;44.10
12156;DHT22;6141;49.092;8.516;2023-03-23T08:46:18;15.80;43.00
12156;DHT22;6141;49.092;8.516;2023-03-23T08:49:20;15.80;42.90
12156;DHT22;6141;49.092;8.516;2023-03-23T08:51:47;16.00;42.90
12156;DHT22;6141;49.092;8.516;2023-03-23T08:54:37;16.00;41.70
12156;DHT22;6141;49.092;8.516;2023-03-23T08:57:24;16.10;41.00
12156;DHT22;6141;49.092;8.516;2023-03-23T09:00:18;16.10;40.20
12156;DHT22;6141;49.092;8.516;2023-03-23T09:02:56;16.20;40.10
12156;DHT22;6141;49.092;8.516;2023-03-23T09:05:30;16.30;39.50
12156;DHT22;6141;49.092;8.516;2023-03-23T09:08:02;16.20;39.30
12156;DHT22;6141;49.092;8.516;2023-03-23T09:10:31;16.20;39.10
12156;DHT22;6141;49.092;8.516;2023-03-23T09:12:58;16.10;39.70
12156;DHT22;6141;49.092;8.516;2023-03-23T09:15:25;16.00;41.40
12156;DHT22;6141;49.092;8.516;2023-03-23T09:17:52;15.80;41.30
12156;DHT22;6141;49.092;8.516;2023-03-23T09:20:20;15.70;42.40
12156;DHT22;6141;49.092;8.516;2023-03-23T09:22:50;15.60;41.60
12156;DHT22;6141;49.092;8.516;2023-03-23T09:25:17;15.60;41.40
12156;DHT22;6141;49.092;8.516;2023-03-23T09:27:49;15.70;42.00
12156;DHT22;6141;49.092;8.516;2023-03-23T09:30:19;15.80;41.50
12156;DHT22;6141;49.092;8.516;2023-03-23T09:32:46;15.80;41.60
12156;DHT22;6141;49.092;8.516;2023-03-23T09:35:15;15.80;42.10
12156;DHT22;6141;49.092;8.516;2023-03-23T09:37:42;15.80;42.50
12156;DHT22;6141;49.092;8.516;2023-03-23T09:40:10;15.90;41.30
12156;DHT22;6141;49.092;8.516;2023-03-23T09:42:53;15.80;41.00
12156;DHT22;6141;49.092;8.516;2023-03-23T09:45:23;15.80;42.00
12156;DHT22;6141;49.092;8.516;2023-03-23T09:47:59;15.80;41.80
12156;DHT22;6141;49.092;8.516;2023-03-23T09:50:29;15.70;42.30
12156;DHT22;6141;49.092;8.516;2023-03-23T09:52:59;15.80;42.40
12156;DHT22;6141;49.092;8.516;2023-03-23T09:55:27;15.70;42.30
12156;DHT22;6141;49.092;8.516;2023-03-23T09:57:59;15.60;43.00
12156;DHT22;6141;49.092;8.516;2023-03-23T10:00:29;15.60;42.80
12156;DHT22;6141;49.092;8.516;2023-03-23T10:02:59;15.60;44.10
12156;DHT22;6141;49.092;8.516;2023-03-23T10:05:29;15.70;45.60
12156;DHT22;6141;49.092;8.516;2023-03-23T10:07:56;15.50;46.80
12156;DHT22;6141;49.092;8.516;2023-03-23T10:10:24;15.40;47.00
12156;DHT22;6141;49.092;8.516;2023-03-23T10:12:54;15.30;48.00
12156;DHT22;6141;49.092;8.516;2023-03-23T10:15:25;15.30;48.00
12156;DHT22;6141;49.092;8.516;2023-03-23T10:17:54;15.30;47.90
12156;DHT22;6141;49.092;8.516;2023-03-23T10:20:28;15.20;49.80
12156;DHT22;6141;49.092;8.516;2023-03-23T10:22:59;15.20;49.70
12156;DHT22;6141;49.092;8.516;2023-03-23T10:25:28;15.20;49.90
12156;DHT22;6141;49.092;8.516;2023-03-23T10:27:58;15.30;49.60
12156;DHT22;6141;49.092;8.516;2023-03-23T10:30:27;15.30;48.60
12156;DHT22;6141;49.092;8.516;2023-03-23T10:32:56;15.30;48.60
12156;DHT22;6141;49.092;8.516;2023-03-23T10:35:27;15.20;49.10
12156;DHT22;6141;49.092;8.516;2023-03-23T10:37:56;15.30;49.60
12156;DHT22;6141;49.092;8.516;2023-03-23T10:40:25;15.30;50.00
12156;DHT22;6141;49.092;8.516;2023-03-23T10:42:54;15.30;50.00
12156;DHT22;6141;49.092;8.516;2023-03-23T10:45:24;15.40;50.20
12156;DHT22;6141;49.092;8.516;2023-03-23T10:47:54;15.40;50.20
12156;DHT22;6141;49.092;8.516;2023-03-23T10:50:24;15.30;50.80
12156;DHT22;6141;49.092;8.516;2023-03-23T10:52:52;15.30;50.00
12156;DHT22;6141;49.092;8.516;2023-03-23T10:55:21;15.30;51.10
12156;DHT22;6141;49.092;8.516;2023-03-23T10:57:59;15.40;50.10
12156;DHT22;6141;49.092;8.516;2023-03-23T11:00:26;15.50;50.20
12156;DHT22;6141;49.092;8.516;2023-03-23T11:02:58;15.30;50.00
12156;DHT22;6141;49.092;8.516;2023-03-23T11:05:27;15.30;50.00
12156;DHT22;6141;49.092;8.516;2023-03-23T11:07:59;15.30;50.00
12156;DHT22;6141;49.092;8.516;2023-03-23T11:10:27;15.30;50.00
12156;DHT22;6141;49.092;8.516;2023-03-23T11:12:56;15.30;50.00
12156;DHT22;6141;49.092;8.516;2023-03-23T11:15:28;15.30;50.00
12156;DHT22;6141;49.092;8.516;2023-03-23T11:17:58;15.30;50.00
12156;DHT22;6141;49.092;8.516;2023-03-23T11:20:28;15.30;50.00
12156;DHT22;6141;49.092;8.516;2023-03-23T11:22:56;15.30;48.80
12156;DHT22;6141;49.092;8.516;2023-03-23T11:25:23;15.30;48.80
12156;DHT22;6141;49.092;8.516;2023-03-23T11:27:52;15.20;49.50
12156;DHT22;6141;49.092;8.516;2023-03-23T11:30:20;15.30;49.20
12156;DHT22;6141;49.092;8.516;2023-03-23T11:32:49;15.30;50.00
12156;DHT22;6141;49.092;8.516;2023-03-23T11:35:20;15.30;49.10
12156;DHT22;6141;49.092;8.516;2023-03-23T11:37:48;15.30;48.30
12156;DHT22;6141;49.092;8.516;2023-03-23T11:40:17;15.30;49.40
12156;DHT22;6141;49.092;8.516;2023-03-23T11:42:45;15.40;49.20
12156;DHT22;6141;49.092;8.516;2023-03-23T11:45:13;15.50;49.30
12156;DHT22;6141;49.092;8.516;2023-03-23T11:47:43;15.70;48.20
12156;DHT22;6141;49.092;8.516;2023-03-23T11:50:14;15.80;46.60
12156;DHT22;6141;49.092;8.516;2023-03-23T11:52:44;15.60;46.60
12156;DHT22;6141;49.092;8.516;2023-03-23T11:55:14;15.60;46.60
12156;DHT22;6141;49.092;8.516;2023-03-23T11:57:42;15.50;45.70
12156;DHT22;6141;49.092;8.516;2023-03-23T12:00:12;15.60;45.50
12156;DHT22;6141;49.092;8.516;2023-03-23T12:02:42;15.70;45.50
12156;DHT22;6141;49.092;8.516;2023-03-23T12:05:35;15.70;43.70
12156;DHT22;6141;49.092;8.516;2023-03-23T12:08:12;15.60;44.10
12156;DHT22;6141;49.092;8.516;2023-03-23T12:10:44;15.50;44.00
12156;DHT22;6141;49.092;8.516;2023-03-23T12:13:17;15.60;44.30
12156;DHT22;6141;49.092;8.516;2023-03-23T12:15:50;15.60;43.10
12156;DHT22;6141;49.092;8.516;2023-03-23T12:18:22;15.70;43.30
12156;DHT22;6141;49.092;8.516;2023-03-23T12:20:57;15.80;43.10
12156;DHT22;6141;49.092;8.516;2023-03-23T12:23:28;15.80;42.50
12156;DHT22;6141;49.092;8.516;2023-03-23T12:26:11;15.80;42.20
12156;DHT22;6141;49.092;8.516;2023-03-23T12:28:49;15.90;41.30
12156;DHT22;6141;49.092;8.516;2023-03-23T12:31:18;16.00;41.10
12156;DHT22;6141;49.092;8.516;2023-03-23T12:33:51;16.20;40.50
12156;DHT22;6141;49.092;8.516;2023-03-23T12:36:24;16.20;40.00
12156;DHT22;6141;49.092;8.516;2023-03-23T12:39:00;16.10;38.50
12156;DHT22;6141;49.092;8.516;2023-03-23T12:41:32;16.10;39.40
12156;DHT22;6141;49.092;8.516;2023-03-23T12:44:03;16.00;39.50
12156;DHT22;6141;49.092;8.516;2023-03-23T12:46:39;16.00;39.40
12156;DHT22;6141;49.092;8.516;2023-03-23T12:49:10;16.10;39.40
12156;DHT22;6141;49.092;8.516;2023-03-23T12:51:39;16.20;38.30
12156;DHT22;6141;49.092;8.516;2023-03-23T12:54:11;16.10;38.20
12156;DHT22;6141;49.092;8.516;2023-03-23T12:56:41;16.20;38.30
12156;DHT22;6141;49.092;8.516;2023-03-23T12:59:12;16.30;38.40
12156;DHT22;6141;49.092;8.516;2023-03-23T13:01:41;16.20;38.30
12156;DHT22;6141;49.092;8.516;2023-03-23T13:04:10;16.20;38.10
12156;DHT22;6141;49.092;8.516;2023-03-23T13:06:39;16.20;38.00
12156;DHT22;6141;49.092;8.516;2023-03-23T13:09:09;16.30;38.40
12156;DHT22;6141;49.092;8.516;2023-03-23T13:11:39;16.20;38.10
12156;DHT22;6141;49.092;8.516;2023-03-23T13:14:12;16.10;38.20
12156;DHT22;6141;49.092;8.516;2023-03-23T13:16:43;16.10;38.20
12156;DHT22;6141;49.092;8.516;2023-03-23T13:19:13;16.00;38.10
12156;DHT22;6141;49.092;8.516;2023-03-23T13:21:44;16.00;38.20
12156;DHT22;6141;49.092;8.516;2023-03-23T13:24:13;16.00;38.10
12156;DHT22;6141;49.092;8.516;2023-03-23T13:26:42;16.10;38.20
12156;DHT22;6141;49.092;8.516;2023-03-23T13:29:13;16.10;38.20
12156;DHT22;6141;49.092;8.516;2023-03-23T13:31:41;16.30;38.40
12156;DHT22;6141;49.092;8.516;2023-03-23T13:34:12;16.30;38.30
12156;DHT22;6141;49.092;8.516;2023-03-23T13:36:43;16.50;38.00
12156;DHT22;6141;49.092;8.516;2023-03-23T13:39:17;16.60;37.90
12156;DHT22;6141;49.092;8.516;2023-03-23T13:41:47;16.70;37.70
12156;DHT22;6141;49.092;8.516;2023-03-23T13:44:16;16.80;38.00
12156;DHT22;6141;49.092;8.516;2023-03-23T13:46:53;16.80;38.40
12156;DHT22;6141;49.092;8.516;2023-03-23T13:49:22;16.80;37.20
12156;DHT22;6141;49.092;8.516;2023-03-23T13:51:56;16.90;37.50
12156;DHT22;6141;49.092;8.516;2023-03-23T13:54:24;17.00;36.80
12156;DHT22;6141;49.092;8.516;2023-03-23T13:56:55;17.00;36.40
12156;DHT22;6141;49.092;8.516;2023-03-23T13:59:33;17.10;36.30
12156;DHT22;6141;49.092;8.516;2023-03-23T14:04:46;17.10;36.80
12156;DHT22;6141;49.092;8.516;2023-03-23T14:07:15;17.20;36.70
12156;DHT22;6141;49.092;8.516;2023-03-23T14:09:45;17.20;37.00
12156;DHT22;6141;49.092;8.516;2023-03-23T14:12:16;17.10;36.40
12156;DHT22;6141;49.092;8.516;2023-03-23T14:14:44;16.80;36.60
12156;DHT22;6141;49.092;8.516;2023-03-23T14:17:12;16.90;37.40
12156;DHT22;6141;49.092;8.516;2023-03-23T14:19:41;17.00;37.30
12156;DHT22;6141;49.092;8.516;2023-03-23T14:22:17;17.00;37.20
12156;DHT22;6141;49.092;8.516;2023-03-23T14:24:44;17.10;36.60
12156;DHT22;6141;49.092;8.516;2023-03-23T14:27:12;16.90;36.80
12156;DHT22;6141;49.092;8.516;2023-03-23T14:29:41;16.90;37.90
12156;DHT22;6141;49.092;8.516;2023-03-23T14:32:10;17.00;37.70
12156;DHT22;6141;49.092;8.516;2023-03-23T14:34:39;17.00;37.30
12156;DHT22;6141;49.092;8.516;2023-03-23T14:37:08;17.00;37.30
12156;DHT22;6141;49.092;8.516;2023-03-23T14:39:36;17.10;37.80
12156;DHT22;6141;49.092;8.516;2023-03-23T14:42:04;17.20;37.60
12156;DHT22;6141;49.092;8.516;2023-03-23T14:44:33;17.20;37.30
12156;DHT22;6141;49.092;8.516;2023-03-23T14:47:03;17.40;36.80
12156;DHT22;6141;49.092;8.516;2023-03-23T14:49:31;17.60;35.70
12156;DHT22;6141;49.092;8.516;2023-03-23T14:52:02;17.70;34.80
12156;DHT22;6141;49.092;8.516;2023-03-23T14:54:31;17.70;34.80
12156;DHT22;6141;49.092;8.516;2023-03-23T14:57:02;17.80;34.80
12156;DHT22;6141;49.092;8.516;2023-03-23T14:59:30;18.00;35.10
12156;DHT22;6141;49.092;8.516;2023-03-23T15:01:57;18.10;33.80
12156;DHT22;6141;49.092;8.516;2023-03-23T15:04:28;18.20;33.80
12156;DHT22;6141;49.092;8.516;2023-03-23T15:06:56;18.20;33.70
12156;DHT22;6141;49.092;8.516;2023-03-23T15:09:25;18.30;32.60
12156;DHT22;6141;49.092;8.516;2023-03-23T15:11:54;18.30;34.00
12156;DHT22;6141;49.092;8.516;2023-03-23T15:14:22;18.30;34.00
12156;DHT22;6141;49.092;8.516;2023-03-23T15:16:51;18.50;34.20
12156;DHT22;6141;49.092;8.516;2023-03-23T15:19:19;18.50;34.20
12156;DHT22;6141;49.092;8.516;2023-03-23T15:21:50;18.50;34.20
12156;DHT22;6141;49.092;8.516;2023-03-23T15:24:19;18.50;34.30
12156;DHT22;6141;49.092;8.516;2023-03-23T15:26:46;18.50;35.10
12156;DHT22;6141;49.092;8.516;2023-03-23T15:29:15;18.50;35.20
12156;DHT22;6141;49.092;8.516;2023-03-23T15:31:43;18.50;35.30
12156;DHT22;6141;49.092;8.516;2023-03-23T15:34:13;18.40;35.30
12156;DHT22;6141;49.092;8.516;2023-03-23T15:36:41;18.30;35.30
12156;DHT22;6141;49.092;8.516;2023-03-23T15:39:11;18.30;35.50
12156;DHT22;6141;49.092;8.516;2023-03-23T15:41:45;18.30;35.90
12156;DHT22;6141;49.092;8.516;2023-03-23T15:44:18;18.20;35.30
12156;DHT22;6141;49.092;8.516;2023-03-23T15:46:47;18.20;36.00
12156;DHT22;6141;49.092;8.516;2023-03-23T15:49:15;18.20;35.50
12156;DHT22;6141;49.092;8.516;2023-03-23T15:51:46;18.20;35.90
12156;DHT22;6141;49.092;8.516;2023-03-23T15:54:15;18.20;35.80
12156;DHT22;6141;49.092;8.516;2023-03-23T15:56:42;18.30;35.80
12156;DHT22;6141;49.092;8.516;2023-03-23T15:59:09;18.20;35.50
12156;DHT22;6141;49.092;8.516;2023-03-23T16:01:38;18.20;35.70
12156;DHT22;6141;49.092;8.516;2023-03-23T16:04:07;18.20;35.50
12156;DHT22;6141;49.092;8.516;2023-03-23T16:06:36;18.20;34.20
12156;DHT22;6141;49.092;8.516;2023-03-23T16:09:04;18.20;34.60
12156;DHT22;6141;49.092;8.516;2023-03-23T16:11:33;18.30;34.40
12156;DHT22;6141;49.092;8.516;2023-03-23T16:14:02;18.20;33.90
12156;DHT22;6141;49.092;8.516;2023-03-23T16:16:30;18.20;34.60
12156;DHT22;6141;49.092;8.516;2023-03-23T16:19:00;18.10;35.20